Time;durP1;ratioP1;P1;durP2;ratioP2;P2;SDS_P1;SDS_P2;PMS_P1;PMS_P2;Temp;Humidity;BMP_temperature;BMP_pressure;BME280_temperature;BME280_humidity;BME280_pressure;Samples;Min_cycle;Max_cycle;Signal;HPM_P1;HPM_P2
2021/06/14 00:00:19;;;;;;;2.50;2.03;;;28.80;66.20;;;;;;5124534;28;20260;-42
2021/06/14 00:02:45;;;;;;;2.10;1.90;;;28.80;66.20;;;;;;5124717;28;20049;-41
2021/06/14 00:05:15;;;;;;;2.03;1.92;;;28.80;66.20;;;;;;5124205;28;20038;-42
2021/06/14 00:07:41;;;;;;;1.80;1.70;;;28.80;66.30;;;;;;5124107;28;20056;-41
2021/06/14 00:10:08;;;;;;;1.92;1.83;;;28.80;66.20;;;;;;5124024;28;20054;-43
2021/06/14 00:12:34;;;;;;;1.90;1.80;;;28.80;66.30;;;;;;5104915;28;20044;-42
2021/06/14 00:15:01;;;;;;;1.63;1.52;;;28.80;66.30;;;;;;5100425;28;20044;-41
2021/06/14 00:17:27;;;;;;;1.73;1.63;;;28.80;66.30;;;;;;5083693;28;20039;-42
2021/06/14 00:19:53;;;;;;;2.30;2.10;;;28.70;66.30;;;;;;5103462;28;20084;-43
2021/06/14 00:22:20;;;;;;;2.00;1.90;;;28.70;66.30;;;;;;5103228;28;20024;-42
2021/06/14 00:24:46;;;;;;;2.08;1.98;;;28.70;66.30;;;;;;5103670;28;20032;-41
2021/06/14 00:27:12;;;;;;;2.30;2.10;;;28.70;66.30;;;;;;5087113;28;20729;-41
2021/06/14 00:29:39;;;;;;;1.85;1.75;;;28.70;66.30;;;;;;5065206;28;20078;-42
2021/06/14 00:32:06;;;;;;;1.90;1.80;;;28.70;66.30;;;;;;5083209;28;20215;-41
2021/06/14 00:34:32;;;;;;;;;;;28.70;66.40;;;;;;5102452;28;20028;-41
2021/06/14 00:36:58;;;;;;;2.03;1.92;;;28.70;66.40;;;;;;5103411;28;19915;-41
2021/06/14 00:39:24;;;;;;;1.97;1.87;;;28.70;66.40;;;;;;5103243;28;20024;-42
2021/06/14 00:41:51;;;;;;;1.90;1.80;;;28.70;66.40;;;;;;5103052;28;20268;-41
2021/06/14 00:44:17;;;;;;;;;;;28.70;66.40;;;;;;5103814;28;20081;-41
2021/06/14 00:46:43;;;;;;;1.98;1.85;;;28.70;66.40;;;;;;5103299;28;19908;-41
2021/06/14 00:49:09;;;;;;;2.03;1.90;;;28.60;66.30;;;;;;5108290;28;20119;-41
2021/06/14 00:51:35;;;;;;;1.90;1.80;;;28.60;66.30;;;;;;5119996;28;20119;-41
2021/06/14 00:54:02;;;;;;;2.33;2.13;;;28.60;66.40;;;;;;5105061;28;20139;-42
2021/06/14 00:56:28;;;;;;;2.10;1.90;;;28.60;66.40;;;;;;5113742;28;20261;-41
2021/06/14 00:58:54;;;;;;;2.17;2.07;;;28.60;66.40;;;;;;5119015;28;20378;-43
2021/06/14 01:01:21;;;;;;;2.20;1.80;;;28.60;66.40;;;;;;5123337;28;20305;-42
2021/06/14 01:03:47;;;;;;;1.80;1.70;;;28.60;66.50;;;;;;5123382;28;20268;-42
2021/06/14 01:06:17;;;;;;;2.10;1.90;;;28.60;66.40;;;;;;5123021;28;20038;-41
2021/06/14 01:08:46;;;;;;;2.00;1.83;;;28.60;66.50;;;;;;5123163;28;20032;-43
2021/06/14 01:11:16;;;;;;;1.90;1.80;;;28.50;66.50;;;;;;5097483;28;20032;-41
2021/06/14 01:13:50;;;;;;;2.00;1.90;;;28.50;66.40;;;;;;5102852;28;20020;-43
2021/06/14 01:16:57;;;;;;;1.83;1.73;;;28.50;66.50;;;;;;5085092;28;20039;-42
2021/06/14 01:19:31;;;;;;;1.80;1.70;;;28.50;66.50;;;;;;5055575;28;20090;-41
2021/06/14 01:22:24;;;;;;;2.47;2.28;;;28.50;66.60;;;;;;5042972;28;20021;-41
2021/06/14 01:25:29;;;;;;;2.08;1.98;;;28.50;66.60;;;;;;5059364;28;20032;-42
2021/06/14 01:27:57;;;;;;;1.95;1.85;;;28.40;66.50;;;;;;5000061;28;20029;-41
2021/06/14 01:30:25;;;;;;;1.98;1.83;;;28.40;66.50;;;;;;4983594;28;20042;-43
2021/06/14 01:32:52;;;;;;;2.30;2.10;;;28.40;66.50;;;;;;4983909;28;20038;-41
2021/06/14 01:35:22;;;;;;;2.10;1.90;;;28.40;66.60;;;;;;4983841;28;20065;-42
2021/06/14 01:37:49;;;;;;;1.88;1.63;;;28.40;66.60;;;;;;4999847;28;20038;-42
2021/06/14 01:40:17;;;;;;;2.30;2.10;;;28.40;66.60;;;;;;4999586;28;20649;-41
2021/06/14 01:42:44;;;;;;;2.00;1.90;;;28.40;66.60;;;;;;5000094;28;20612;-42
2021/06/14 01:45:11;;;;;;;2.00;1.90;;;28.40;66.60;;;;;;4983800;28;20046;-42
2021/06/14 01:47:37;;;;;;;2.33;2.03;;;28.40;66.60;;;;;;4999864;28;20034;-41
2021/06/14 01:50:04;;;;;;;2.13;1.90;;;28.30;66.50;;;;;;5017752;28;20030;-43
2021/06/14 01:52:30;;;;;;;;;;;28.30;66.60;;;;;;5023461;28;20053;-43
2021/06/14 01:54:56;;;;;;;2.22;2.03;;;28.30;66.60;;;;;;5039091;28;19909;-41
2021/06/14 01:57:22;;;;;;;1.88;1.70;;;28.30;66.60;;;;;;5019803;28;20037;-42
2021/06/14 01:59:48;;;;;;;2.47;2.25;;;28.30;66.70;;;;;;5024917;28;20044;-41
2021/06/14 02:02:15;;;;;;;2.47;2.28;;;28.30;66.70;;;;;;5069839;28;20150;-43
2021/06/14 02:04:44;;;;;;;1.95;1.85;;;28.30;66.70;;;;;;5088075;28;20035;-41
2021/06/14 02:07:10;;;;;;;2.45;2.25;;;28.30;66.80;;;;;;5071990;28;20032;-42
2021/06/14 02:09:37;;;;;;;2.15;1.95;;;28.20;66.70;;;;;;5071279;28;20030;-41
2021/06/14 02:12:04;;;;;;;2.00;1.90;;;28.20;66.70;;;;;;5087674;28;20036;-41
2021/06/14 02:14:31;;;;;;;2.15;2.03;;;28.20;66.80;;;;;;5106180;28;20027;-42
2021/06/14 02:17:21;;;;;;;2.30;2.10;;;28.20;66.70;;;;;;5106161;28;20025;-40
2021/06/14 02:19:48;;;;;;;2.08;1.98;;;28.20;66.70;;;;;;5090317;28;20529;-41
2021/06/14 02:22:15;;;;;;;2.13;1.98;;;28.20;66.80;;;;;;5105722;28;20032;-42
2021/06/14 02:24:41;;;;;;;;;;;28.10;66.60;;;;;;5110249;28;20031;-42
2021/06/14 02:27:09;;;;;;;2.00;1.90;;;28.10;66.70;;;;;;5105973;28;19908;-41
2021/06/14 02:29:35;;;;;;;2.30;2.10;;;28.10;66.70;;;;;;5105758;28;20028;-43
2021/06/14 02:32:01;;;;;;;2.20;2.00;;;28.10;66.70;;;;;;5105448;28;20728;-42
2021/06/14 02:34:28;;;;;;;2.17;1.98;;;28.10;66.70;;;;;;5087379;28;20016;-41
2021/06/14 02:36:54;;;;;;;1.97;1.87;;;28.10;66.70;;;;;;5087514;28;20028;-42
2021/06/14 02:39:28;;;;;;;2.35;2.15;;;28.00;66.70;;;;;;5087294;28;20891;-41
2021/06/14 02:41:55;;;;;;;2.30;2.10;;;28.10;66.80;;;;;;5086901;28;20036;-41
2021/06/14 02:44:22;;;;;;;2.63;2.30;;;28.00;66.70;;;;;;5087450;28;20028;-41
2021/06/14 02:46:48;;;;;;;2.00;1.90;;;28.00;66.80;;;;;;5088192;28;20046;-42
2021/06/14 02:49:15;;;;;;;2.42;2.20;;;28.00;66.70;;;;;;5110559;28;20385;-42
2021/06/14 02:51:41;;;;;;;2.20;2.03;;;28.00;66.80;;;;;;5105165;28;20067;-41
2021/06/14 02:54:17;;;;;;;1.98;1.88;;;28.00;66.70;;;;;;5087476;28;20055;-41
2021/06/14 02:56:43;;;;;;;2.42;2.22;;;28.00;66.80;;;;;;5105480;28;20036;-42
2021/06/14 02:59:12;;;;;;;2.07;1.97;;;28.00;66.80;;;;;;5119788;28;20142;-43
2021/06/14 03:01:38;;;;;;;2.50;2.30;;;27.90;66.70;;;;;;5107879;28;20260;-40
2021/06/14 03:04:05;;;;;;;2.27;2.07;;;27.90;66.60;;;;;;5104192;28;20024;-42
2021/06/14 03:06:31;;;;;;;;;;;27.90;66.70;;;;;;5105735;28;20276;-42
2021/06/14 03:08:57;;;;;;;2.20;2.00;;;27.90;66.80;;;;;;5105313;28;19911;-41
2021/06/14 03:11:26;;;;;;;2.38;2.10;;;27.90;66.70;;;;;;5104829;28;20038;-41
2021/06/14 03:13:52;;;;;;;2.25;2.10;;;27.90;66.80;;;;;;5104917;28;20028;-41
2021/06/14 03:16:18;;;;;;;2.28;2.10;;;27.80;66.70;;;;;;5086761;28;20020;-41
2021/06/14 03:18:45;;;;;;;2.23;1.90;;;27.80;66.70;;;;;;5097972;28;20396;-42
2021/06/14 03:21:11;;;;;;;2.03;1.92;;;27.80;66.80;;;;;;5125232;28;20290;-42
2021/06/14 03:23:37;;;;;;;2.60;2.40;;;27.80;66.80;;;;;;5090368;28;20028;-42
2021/06/14 03:26:04;;;;;;;2.77;2.13;;;27.80;66.70;;;;;;5125255;28;20028;-41
2021/06/14 03:28:30;;;;;;;2.13;1.90;;;27.80;66.60;;;;;;5106858;28;20032;-42
2021/06/14 03:30:56;;;;;;;1.95;1.85;;;27.80;66.60;;;;;;5106347;28;20130;-40
2021/06/14 03:33:23;;;;;;;4.17;2.43;;;27.70;66.60;;;;;;5124973;28;20019;-43
2021/06/14 03:35:49;;;;;;;2.23;2.10;;;27.70;67.30;;;;;;5106621;28;20031;-41
2021/06/14 03:38:15;;;;;;;2.30;2.10;;;27.70;66.50;;;;;;5090140;28;20391;-42
2021/06/14 03:40:41;;;;;;;4.38;2.60;;;27.70;66.60;;;;;;5103705;28;20030;-41
2021/06/14 03:43:07;;;;;;;2.00;1.90;;;27.70;66.60;;;;;;5104252;28;20548;-41
2021/06/14 03:45:34;;;;;;;2.33;2.13;;;27.70;66.50;;;;;;5104580;28;20050;-42
2021/06/14 03:48:00;;;;;;;2.40;2.20;;;27.70;66.50;;;;;;5124845;27;20054;-41
2021/06/14 03:50:26;;;;;;;2.33;2.13;;;27.70;66.50;;;;;;5141024;27;20062;-42
2021/06/14 03:52:53;;;;;;;2.58;2.38;;;27.70;66.50;;;;;;5145330;27;20095;-43
2021/06/14 03:55:19;;;;;;;2.25;2.05;;;27.60;66.40;;;;;;5145406;27;20046;-41
2021/06/14 03:57:45;;;;;;;2.40;2.20;;;27.60;66.50;;;;;;5145173;27;20043;-42
2021/06/14 04:00:13;;;;;;;2.37;2.17;;;27.60;66.50;;;;;;5139961;27;20023;-41
2021/06/14 04:02:40;;;;;;;2.30;2.10;;;27.60;66.60;;;;;;5124672;28;20027;-41
2021/06/14 04:05:07;;;;;;;2.50;2.30;;;27.60;66.60;;;;;;5124712;28;20417;-41
2021/06/14 04:07:33;;;;;;;1.90;1.77;;;27.60;66.70;;;;;;5106315;28;20031;-41
2021/06/14 04:10:00;;;;;;;2.50;2.30;;;27.50;66.40;;;;;;5124668;28;20024;-43
2021/06/14 04:12:29;;;;;;;3.28;2.25;;;27.50;66.40;;;;;;5106382;28;20042;-42
2021/06/14 04:14:56;;;;;;;2.50;2.30;;;27.50;66.40;;;;;;5103929;28;20039;-41
2021/06/14 04:17:22;;;;;;;5.10;2.50;;;27.50;66.50;;;;;;5103920;28;20024;-42
2021/06/14 04:19:48;;;;;;;2.35;2.15;;;27.50;66.60;;;;;;5124042;28;20026;-41
2021/06/14 04:22:15;;;;;;;4.20;2.37;;;27.50;66.50;;;;;;5124129;28;20027;-42
2021/06/14 04:24:41;;;;;;;2.33;2.13;;;27.50;66.50;;;;;;5124036;28;20134;-42
2021/06/14 04:27:07;;;;;;;2.80;2.42;;;27.50;66.50;;;;;;5123727;28;20026;-41
2021/06/14 04:29:34;;;;;;;2.83;2.40;;;27.40;66.50;;;;;;5123995;28;20031;-41
2021/06/14 04:32:00;;;;;;;3.50;2.17;;;27.40;66.70;;;;;;5123265;28;20055;-41
2021/06/14 04:34:26;;;;;;;2.47;2.27;;;27.40;66.50;;;;;;5124250;28;20023;-41
2021/06/14 04:36:53;;;;;;;2.20;2.00;;;27.40;66.50;;;;;;5124166;28;20038;-42
2021/06/14 04:39:19;;;;;;;2.50;2.30;;;27.40;66.70;;;;;;5105563;28;20691;-42
2021/06/14 04:41:45;;;;;;;2.60;2.40;;;27.40;66.70;;;;;;5123521;28;20031;-41
2021/06/14 04:44:11;;;;;;;4.03;2.20;;;27.30;66.50;;;;;;5105323;28;20038;-41
2021/06/14 04:46:38;;;;;;;2.15;2.05;;;27.30;66.50;;;;;;5124074;28;20031;-41
2021/06/14 04:49:04;;;;;;;2.63;2.42;;;27.30;66.70;;;;;;5123764;28;20108;-41
2021/06/14 04:51:31;;;;;;;2.70;2.50;;;27.30;66.50;;;;;;5134799;27;20061;-43
2021/06/14 04:53:57;;;;;;;4.50;2.43;;;27.30;66.50;;;;;;5123486;28;20028;-41
2021/06/14 04:56:23;;;;;;;4.23;2.20;;;27.30;66.50;;;;;;5105016;28;20083;-41
2021/06/14 04:58:49;;;;;;;2.40;2.20;;;27.30;66.50;;;;;;5123445;28;20054;-42
2021/06/14 05:01:15;;;;;;;2.47;2.23;;;27.30;66.70;;;;;;5109504;28;20079;-41
2021/06/14 05:03:42;;;;;;;2.42;2.22;;;27.30;66.60;;;;;;5103150;28;20032;-41
2021/06/14 05:06:08;;;;;;;2.83;2.20;;;27.20;66.70;;;;;;5103003;28;20032;-42
2021/06/14 05:08:34;;;;;;;2.50;2.30;;;27.20;66.60;;;;;;5103337;28;20677;-41
2021/06/14 05:11:00;;;;;;;3.08;2.30;;;27.20;66.60;;;;;;5103120;28;20780;-41
2021/06/14 05:13:27;;;;;;;2.47;2.28;;;27.20;66.60;;;;;;5102573;28;20040;-41
2021/06/14 05:15:53;;;;;;;3.43;2.00;;;27.20;66.60;;;;;;5103129;28;20031;-43
2021/06/14 05:18:19;;;;;;;3.20;2.43;;;27.20;66.50;;;;;;5110813;28;20096;-42
2021/06/14 05:20:45;;;;;;;2.55;2.30;;;27.10;66.50;;;;;;5123422;28;20023;-41
2021/06/14 05:23:11;;;;;;;2.40;2.20;;;27.10;66.40;;;;;;5123344;28;20035;-42
2021/06/14 05:25:38;;;;;;;2.83;2.53;;;27.10;66.50;;;;;;5104886;28;20759;-41
2021/06/14 05:28:04;;;;;;;2.47;2.20;;;27.10;66.70;;;;;;5123252;28;20039;-43
2021/06/14 05:30:31;;;;;;;2.15;1.95;;;27.10;66.60;;;;;;5104927;28;20044;-42
2021/06/14 05:32:58;;;;;;;2.40;2.20;;;27.10;66.70;;;;;;5122877;28;20050;-41
2021/06/14 05:35:25;;;;;;;2.42;2.22;;;27.10;66.70;;;;;;5123206;28;20024;-41
2021/06/14 05:37:51;;;;;;;2.45;2.13;;;27.00;66.60;;;;;;5123215;28;20515;-43
2021/06/14 05:40:17;;;;;;;2.97;2.53;;;27.00;66.60;;;;;;5123415;28;20058;-42
2021/06/14 05:42:44;;;;;;;2.20;2.00;;;27.00;66.60;;;;;;5102710;28;20044;-41
2021/06/14 05:45:11;;;;;;;2.27;2.00;;;27.00;66.70;;;;;;5102439;28;20048;-41
2021/06/14 05:47:37;;;;;;;2.50;2.30;;;27.00;66.60;;;;;;5104260;28;20260;-42
2021/06/14 05:50:05;;;;;;;2.57;2.30;;;27.00;66.70;;;;;;5134502;28;20033;-43
2021/06/14 05:52:31;;;;;;;2.50;2.30;;;27.00;66.70;;;;;;5132239;28;20027;-41
2021/06/14 05:54:58;;;;;;;2.60;2.40;;;26.90;66.60;;;;;;5122608;28;20035;-41
2021/06/14 05:57:24;;;;;;;2.50;2.25;;;26.90;66.50;;;;;;5122877;28;20836;-41
2021/06/14 05:59:50;;;;;;;4.30;2.30;;;26.90;66.70;;;;;;5123022;28;20039;-41
2021/06/14 06:02:16;;;;;;;2.15;2.00;;;26.90;66.50;;;;;;5123354;28;20036;-43
2021/06/14 06:04:42;;;;;;;2.50;2.30;;;26.90;66.50;;;;;;5122835;28;20047;-42
2021/06/14 06:07:08;;;;;;;3.17;2.20;;;26.90;66.50;;;;;;5122950;28;20020;-41
2021/06/14 06:09:35;;;;;;;2.42;2.20;;;26.80;66.50;;;;;;5122982;28;20031;-41
2021/06/14 06:12:01;;;;;;;3.67;2.22;;;26.80;66.40;;;;;;5122721;28;20043;-41
2021/06/14 06:14:27;;;;;;;2.45;2.25;;;26.80;66.40;;;;;;5104019;28;20050;-43
2021/06/14 06:16:53;;;;;;;2.37;2.17;;;26.80;66.30;;;;;;5122927;28;20024;-41
2021/06/14 06:19:19;;;;;;;2.07;1.87;;;26.80;66.40;;;;;;5122876;28;20027;-43
2021/06/14 06:21:45;;;;;;;2.58;2.10;;;26.80;66.40;;;;;;5122816;28;20126;-42
2021/06/14 06:24:12;;;;;;;2.03;1.93;;;26.80;66.40;;;;;;5122550;28;20030;-41
2021/06/14 06:26:38;;;;;;;2.63;2.20;;;26.70;66.30;;;;;;5122736;28;20820;-41
2021/06/14 06:29:04;;;;;;;2.42;2.10;;;26.70;66.50;;;;;;5122778;28;20024;-41
2021/06/14 06:31:31;;;;;;;2.67;2.47;;;26.70;66.60;;;;;;5122770;28;20039;-43
2021/06/14 06:33:57;;;;;;;2.50;2.30;;;26.70;66.70;;;;;;5122553;28;20028;-42
2021/06/14 06:36:23;;;;;;;2.60;2.40;;;26.70;66.70;;;;;;5122517;28;20036;-42
2021/06/14 06:38:49;;;;;;;2.47;2.28;;;26.70;66.70;;;;;;5122729;28;20088;-41
2021/06/14 06:41:15;;;;;;;2.50;2.23;;;26.70;66.70;;;;;;5121539;28;20031;-41
2021/06/14 06:43:41;;;;;;;2.53;2.25;;;26.60;66.70;;;;;;5122370;28;20024;-41
2021/06/14 06:46:09;;;;;;;2.25;2.15;;;26.60;66.80;;;;;;5122481;28;20031;-43
2021/06/14 06:48:35;;;;;;;2.55;2.28;;;26.60;66.60;;;;;;5123232;28;20031;-40
2021/06/14 06:51:02;;;;;;;2.53;2.33;;;26.60;66.80;;;;;;5132803;27;20035;-43
2021/06/14 06:53:28;;;;;;;2.47;2.27;;;26.60;66.60;;;;;;5145803;27;20031;-41
2021/06/14 06:55:54;;;;;;;2.30;2.10;;;26.60;66.70;;;;;;5146622;27;20026;-42
2021/06/14 06:58:21;;;;;;;2.88;2.13;;;26.60;66.50;;;;;;5146779;27;20062;-41
2021/06/14 07:00:48;;;;;;;3.05;2.53;;;26.50;66.50;;;;;;5136308;27;20032;-42
2021/06/14 07:03:16;;;;;;;2.40;2.20;;;26.50;66.40;;;;;;5126134;28;20084;-43
2021/06/14 07:05:43;;;;;;;3.67;2.40;;;26.50;66.50;;;;;;5125851;28;20039;-43
2021/06/14 07:08:09;;;;;;;2.40;2.20;;;26.50;66.50;;;;;;5126013;28;20024;-42
2021/06/14 07:10:37;;;;;;;2.47;2.08;;;26.50;66.50;;;;;;5125932;28;20054;-41
2021/06/14 07:13:03;;;;;;;2.35;2.17;;;26.50;66.50;;;;;;5126097;28;20028;-42
2021/06/14 07:15:30;;;;;;;3.00;2.40;;;26.50;66.50;;;;;;5125689;28;20028;-42
2021/06/14 07:17:56;;;;;;;2.50;2.30;;;26.40;66.50;;;;;;5125916;28;20252;-42
2021/06/14 07:20:22;;;;;;;2.47;2.27;;;26.40;66.50;;;;;;5125833;28;20115;-41
2021/06/14 07:22:48;;;;;;;2.67;2.40;;;26.40;66.40;;;;;;5125620;28;20260;-43
2021/06/14 07:25:15;;;;;;;2.60;2.40;;;26.40;66.50;;;;;;5125384;28;20036;-40
2021/06/14 07:27:43;;;;;;;2.30;2.10;;;26.40;66.50;;;;;;5125765;28;20031;-40
2021/06/14 07:30:11;;;;;;;2.30;2.10;;;26.40;66.60;;;;;;5125551;28;20057;-44
2021/06/14 07:32:38;;;;;;;2.40;2.00;;;26.40;66.70;;;;;;5125791;28;20035;-42
2021/06/14 07:35:05;;;;;;;2.30;2.10;;;26.40;66.90;;;;;;5106963;28;20766;-41
2021/06/14 07:37:31;;;;;;;2.38;2.17;;;26.40;66.70;;;;;;5125440;28;20031;-41
2021/06/14 07:39:57;;;;;;;3.35;2.00;;;26.30;66.80;;;;;;5125436;28;20096;-41
2021/06/14 07:42:24;;;;;;;2.20;2.00;;;26.30;66.80;;;;;;5108122;28;20380;-43
2021/06/14 07:44:50;;;;;;;4.45;2.50;;;26.30;66.80;;;;;;5104647;28;20031;-42
2021/06/14 07:47:16;;;;;;;2.58;2.20;;;26.30;66.70;;;;;;5104771;28;20032;-42
2021/06/14 07:49:42;;;;;;;2.77;2.57;;;26.30;66.70;;;;;;5129733;27;20038;-41
2021/06/14 07:52:09;;;;;;;3.05;2.40;;;26.30;66.60;;;;;;5145648;27;20462;-43
2021/06/14 07:54:35;;;;;;;2.40;2.20;;;26.30;66.60;;;;;;5145690;27;20031;-43
2021/06/14 07:57:02;;;;;;;2.80;2.25;;;26.30;66.60;;;;;;5145420;27;20284;-43
2021/06/14 07:59:28;;;;;;;2.40;2.20;;;26.20;66.60;;;;;;5129422;27;20028;-42
2021/06/14 08:01:54;;;;;;;3.13;2.45;;;26.20;66.50;;;;;;5124270;28;20040;-42
2021/06/14 08:04:20;;;;;;;2.35;2.15;;;26.20;66.50;;;;;;5125143;28;20023;-42
2021/06/14 08:06:46;;;;;;;3.42;2.50;;;26.20;66.60;;;;;;5124573;28;20039;-41
2021/06/14 08:09:15;;;;;;;2.70;2.50;;;26.20;66.60;;;;;;5124909;28;20064;-41
2021/06/14 08:11:45;;;;;;;2.60;2.13;;;26.20;66.60;;;;;;5113114;28;20032;-42
2021/06/14 08:14:11;;;;;;;4.00;2.58;;;26.20;66.60;;;;;;5086736;28;20032;-42
2021/06/14 08:16:43;;;;;;;2.63;2.43;;;26.10;66.50;;;;;;5104036;28;20050;-41
2021/06/14 08:19:33;;;;;;;2.47;2.28;;;26.10;66.60;;;;;;5118765;28;20255;-41
2021/06/14 08:27:30;;;;;;;2.60;2.40;;;26.10;66.60;;;;;;5124314;28;20030;-41
2021/06/14 08:29:56;;;;;;;2.42;2.22;;;26.10;66.80;;;;;;5124205;28;20412;-42
2021/06/14 08:32:22;;;;;;;2.58;2.38;;;26.10;66.70;;;;;;5123543;28;20032;-42
2021/06/14 08:34:48;;;;;;;2.63;2.00;;;26.10;66.70;;;;;;5124503;28;20020;-41
2021/06/14 08:37:15;;;;;;;2.27;2.07;;;26.00;66.80;;;;;;5124135;28;20102;-43
2021/06/14 08:39:41;;;;;;;2.22;2.13;;;26.00;66.80;;;;;;5123286;28;20054;-41
2021/06/14 08:42:08;;;;;;;2.70;2.47;;;26.00;66.70;;;;;;5124191;28;20031;-42
2021/06/14 08:44:34;;;;;;;2.30;2.10;;;26.00;66.80;;;;;;5123842;28;20038;-42
2021/06/14 08:47:03;;;;;;;2.20;2.00;;;26.00;66.70;;;;;;5105444;28;21014;-42
2021/06/14 08:49:29;;;;;;;2.60;2.40;;;26.00;66.70;;;;;;5105913;28;20038;-40
2021/06/14 08:51:57;;;;;;;2.50;2.33;;;26.00;66.70;;;;;;5090104;27;20034;-43
2021/06/14 08:54:23;;;;;;;2.50;2.30;;;26.00;66.70;;;;;;5092325;27;20259;-42
2021/06/14 08:56:49;;;;;;;3.05;2.70;;;25.90;66.60;;;;;;5125627;27;20027;-41
2021/06/14 08:59:15;;;;;;;2.25;2.15;;;25.90;66.60;;;;;;5144053;27;20035;-43
2021/06/14 09:01:41;;;;;;;2.30;2.10;;;25.90;66.70;;;;;;5126116;27;20024;-42
2021/06/14 09:04:07;;;;;;;2.67;2.47;;;25.90;66.70;;;;;;5124084;28;20142;-41
2021/06/14 09:06:34;;;;;;;2.67;2.25;;;25.90;66.70;;;;;;5123449;28;20028;-42
2021/06/14 09:09:07;;;;;;;2.77;2.20;;;25.90;66.70;;;;;;5123849;28;20024;-42
2021/06/14 09:11:35;;;;;;;2.60;2.35;;;25.90;66.70;;;;;;5112577;28;20043;-43
2021/06/14 09:14:01;;;;;;;3.33;2.40;;;25.90;66.70;;;;;;5103186;28;20055;-41
2021/06/14 09:16:31;;;;;;;2.60;2.40;;;25.80;66.70;;;;;;5102838;28;20087;-42
2021/06/14 09:18:58;;;;;;;2.72;2.50;;;25.80;66.60;;;;;;5116152;28;20271;-41
2021/06/14 09:21:29;;;;;;;2.50;2.30;;;25.80;66.70;;;;;;5123399;28;20020;-42
2021/06/14 09:23:57;;;;;;;2.50;2.30;;;25.80;66.70;;;;;;5105114;28;20031;-42
2021/06/14 09:26:33;;;;;;;2.33;2.13;;;25.80;66.90;;;;;;5104639;28;20008;-42
2021/06/14 09:29:05;;;;;;;2.47;2.28;;;25.80;66.70;;;;;;5123447;28;20031;-43
2021/06/14 09:31:51;;;;;;;2.58;2.38;;;25.80;66.70;;;;;;5123039;28;20048;-42
2021/06/14 09:34:17;;;;;;;2.45;2.22;;;25.80;66.80;;;;;;5123483;28;20051;-42
2021/06/14 09:36:57;;;;;;;2.38;2.17;;;25.80;66.80;;;;;;5122842;28;20461;-41
2021/06/14 09:39:23;;;;;;;2.42;2.22;;;25.70;66.70;;;;;;5123088;28;20035;-41
2021/06/14 09:41:53;;;;;;;2.97;2.38;;;25.70;66.70;;;;;;5092063;28;20150;-43
2021/06/14 09:44:29;;;;;;;2.72;2.53;;;25.70;66.80;;;;;;5102508;28;20107;-43
2021/06/14 09:46:59;;;;;;;2.28;2.17;;;25.70;66.80;;;;;;5102479;28;20485;-43
2021/06/14 09:49:26;;;;;;;2.35;2.15;;;25.70;66.70;;;;;;5126620;28;20028;-42
2021/06/14 09:51:52;;;;;;;2.47;2.28;;;25.70;66.80;;;;;;5104419;28;20572;-42
2021/06/14 09:54:28;;;;;;;2.80;2.30;;;25.70;66.80;;;;;;5123030;28;20019;-42
2021/06/14 09:56:55;;;;;;;3.38;2.58;;;25.70;66.80;;;;;;5122622;28;20571;-42
2021/06/14 09:59:44;;;;;;;2.28;2.10;;;25.60;66.80;;;;;;5122834;28;20055;-41
2021/06/14 10:02:17;;;;;;;2.60;2.40;;;25.60;66.70;;;;;;5102651;28;20366;-42
2021/06/14 10:04:47;;;;;;;2.40;2.20;;;25.60;66.80;;;;;;5102701;28;20028;-42
2021/06/14 10:07:15;;;;;;;2.38;2.17;;;25.60;66.80;;;;;;5067486;28;20020;-42
2021/06/14 10:09:48;;;;;;;2.53;2.33;;;25.60;66.80;;;;;;5102478;28;20039;-42
2021/06/14 10:12:24;;;;;;;2.88;2.50;;;25.60;66.90;;;;;;5118749;28;20039;-42
2021/06/14 10:15:02;;;;;;;2.70;2.50;;;25.60;66.80;;;;;;5122926;28;20023;-42
2021/06/14 10:17:41;;;;;;;2.20;2.00;;;25.60;66.90;;;;;;5122491;28;20504;-43
2021/06/14 10:20:22;;;;;;;2.40;2.17;;;25.60;66.90;;;;;;5122935;28;20085;-42
2021/06/14 10:22:49;;;;;;;2.70;2.50;;;25.60;66.90;;;;;;5122602;28;20099;-43
2021/06/14 10:25:16;;;;;;;2.00;1.90;;;25.50;67.00;;;;;;5108009;28;20027;-42
2021/06/14 10:27:42;;;;;;;2.67;2.47;;;25.50;66.90;;;;;;5108128;28;20117;-42
2021/06/14 10:30:10;;;;;;;2.47;2.20;;;25.50;66.90;;;;;;5126303;28;20035;-43
2021/06/14 10:32:37;;;;;;;2.53;2.33;;;25.50;66.90;;;;;;5126297;28;20042;-43
2021/06/14 10:35:04;;;;;;;2.45;2.25;;;25.50;67.00;;;;;;5126283;28;20096;-42
2021/06/14 10:37:31;;;;;;;2.65;2.45;;;25.50;67.00;;;;;;5126134;28;20031;-42
2021/06/14 10:39:57;;;;;;;3.15;2.20;;;25.50;67.00;;;;;;5125995;28;20074;-43
2021/06/14 10:42:23;;;;;;;2.55;2.35;;;25.50;67.00;;;;;;5126297;28;20039;-42
2021/06/14 10:44:49;;;;;;;2.10;2.00;;;25.40;66.90;;;;;;5126334;28;20096;-43
2021/06/14 10:47:15;;;;;;;2.10;2.00;;;25.40;66.90;;;;;;5107877;28;20118;-41
2021/06/14 10:49:42;;;;;;;3.88;2.47;;;25.40;66.90;;;;;;5110824;28;20028;-43
2021/06/14 10:52:08;;;;;;;2.40;2.20;;;25.40;66.90;;;;;;5105486;28;20071;-42
2021/06/14 10:54:41;;;;;;;2.30;2.10;;;25.40;67.00;;;;;;5105765;28;20020;-43
2021/06/14 10:57:09;;;;;;;4.75;2.05;;;25.40;67.00;;;;;;5105454;28;20043;-43
2021/06/14 10:59:39;;;;;;;2.70;2.40;;;25.40;67.00;;;;;;5105393;28;20024;-42
2021/06/14 11:02:06;;;;;;;2.33;2.15;;;25.40;67.00;;;;;;5105580;28;20025;-42
2021/06/14 11:04:33;;;;;;;2.55;2.22;;;25.40;67.00;;;;;;5121522;28;20083;-42
2021/06/14 11:07:02;;;;;;;2.57;2.20;;;25.40;67.00;;;;;;5125686;28;20051;-41
2021/06/14 11:09:46;;;;;;;2.40;2.20;;;25.40;67.10;;;;;;5125749;28;20024;-42
2021/06/14 11:12:24;;;;;;;2.60;2.08;;;25.30;67.10;;;;;;5125375;28;20031;-43
2021/06/14 11:14:50;;;;;;;2.50;2.30;;;25.30;67.10;;;;;;5107555;28;20066;-43
2021/06/14 11:17:17;;;;;;;2.35;2.15;;;25.30;67.10;;;;;;5125563;28;20035;-42
2021/06/14 11:19:49;;;;;;;2.50;2.30;;;25.30;67.10;;;;;;5125201;28;20028;-43
2021/06/14 11:22:17;;;;;;;2.30;2.10;;;25.30;67.10;;;;;;5125415;28;20173;-43
2021/06/14 11:24:43;;;;;;;2.53;2.33;;;25.30;67.10;;;;;;5125491;28;20031;-42
2021/06/14 11:27:10;;;;;;;2.33;2.13;;;25.30;67.20;;;;;;5125443;28;20062;-43
2021/06/14 11:29:44;;;;;;;2.75;2.53;;;25.30;67.20;;;;;;5106785;28;20160;-42
2021/06/14 11:32:15;;;;;;;2.72;2.30;;;25.30;67.30;;;;;;5106720;28;20043;-42
2021/06/14 11:34:42;;;;;;;2.58;2.38;;;25.30;67.90;;;;;;5124989;28;20028;-42
2021/06/14 11:37:08;;;;;;;3.47;2.20;;;25.30;67.10;;;;;;5125160;28;20023;-42
2021/06/14 11:39:34;;;;;;;2.67;2.47;;;25.20;67.10;;;;;;5124920;28;20039;-41
2021/06/14 11:42:29;;;;;;;2.20;2.00;;;25.20;67.30;;;;;;5106927;28;20085;-41
2021/06/14 11:44:57;;;;;;;2.70;2.42;;;25.20;67.20;;;;;;5122498;28;20039;-41
2021/06/14 11:47:27;;;;;;;2.28;2.10;;;25.20;67.20;;;;;;5124908;28;20028;-42
2021/06/14 11:49:56;;;;;;;2.30;2.10;;;25.20;67.20;;;;;;5130208;27;20079;-42
2021/06/14 11:52:25;;;;;;;3.45;2.20;;;25.20;67.10;;;;;;5124736;28;20522;-42
2021/06/14 11:54:55;;;;;;;2.97;2.10;;;25.20;67.20;;;;;;5124555;28;20048;-42
2021/06/14 11:57:31;;;;;;;2.42;2.22;;;25.20;67.10;;;;;;5124729;28;20431;-42
2021/06/14 11:59:58;;;;;;;2.50;2.30;;;25.20;67.20;;;;;;5124473;28;20031;-41
2021/06/14 12:02:26;;;;;;;2.45;2.25;;;25.20;68.00;;;;;;5124655;28;20038;-41
2021/06/14 12:05:02;;;;;;;2.92;2.30;;;25.20;67.30;;;;;;5124483;28;20039;-41
2021/06/14 12:07:33;;;;;;;3.75;2.25;;;25.20;67.30;;;;;;5124257;28;20034;-42
2021/06/14 12:10:04;;;;;;;2.67;2.47;;;25.20;67.20;;;;;;5124323;28;20106;-41
2021/06/14 12:12:30;;;;;;;2.92;2.45;;;25.20;67.20;;;;;;5124394;28;20032;-44
2021/06/14 12:14:57;;;;;;;2.30;2.15;;;25.20;67.30;;;;;;5124484;28;20012;-44
2021/06/14 12:17:43;;;;;;;4.10;2.60;;;25.20;67.30;;;;;;5124283;28;20032;-44
2021/06/14 12:20:10;;;;;;;2.60;2.40;;;25.20;67.30;;;;;;5123979;28;20024;-41
2021/06/14 12:22:37;;;;;;;2.35;2.15;;;25.10;67.20;;;;;;5124244;28;20027;-41
2021/06/14 12:25:08;;;;;;;2.60;2.40;;;25.10;67.20;;;;;;5124371;28;20094;-41
2021/06/14 12:27:34;;;;;;;2.50;2.30;;;25.10;67.20;;;;;;5124223;28;20804;-41
2021/06/14 12:30:02;;;;;;;2.35;2.15;;;25.20;67.30;;;;;;5123724;28;20022;-41
2021/06/14 12:32:33;;;;;;;2.60;2.40;;;25.20;67.30;;;;;;5124051;28;20027;-40
2021/06/14 12:35:03;;;;;;;3.08;2.45;;;25.10;67.30;;;;;;5123943;28;20023;-42
2021/06/14 12:37:30;;;;;;;2.55;2.35;;;25.10;67.30;;;;;;5123692;28;20046;-41
2021/06/14 12:40:07;;;;;;;2.37;2.17;;;25.10;67.30;;;;;;5105618;28;20023;-41
2021/06/14 12:42:33;;;;;;;2.22;2.03;;;25.10;67.30;;;;;;5122905;28;20275;-41
2021/06/14 12:45:25;;;;;;;2.33;2.13;;;25.10;67.20;;;;;;5105277;28;20115;-41
2021/06/14 12:47:54;;;;;;;2.42;2.25;;;25.10;67.30;;;;;;5117483;28;20123;-41
2021/06/14 12:50:24;;;;;;;2.30;2.10;;;25.10;67.30;;;;;;5123224;28;20035;-42
2021/06/14 12:52:51;;;;;;;2.45;2.25;;;25.10;67.30;;;;;;5125353;27;20037;-42
2021/06/14 12:55:21;;;;;;;2.50;2.30;;;25.20;67.30;;;;;;5135054;27;20023;-42
2021/06/14 12:57:47;;;;;;;2.40;2.20;;;25.10;67.20;;;;;;5137162;27;20055;-41